createdAt,value
2023-04-16T00:00:04.823Z,32.78
2023-04-16T00:05:14.765Z,28.58
2023-04-16T00:10:16.451Z,25.38
2023-04-16T00:15:18.083Z,23.48
2023-04-16T00:20:20.490Z,20.73
2023-04-16T00:25:22.173Z,17.85
2023-04-16T00:30:23.803Z,21.02
2023-04-16T00:35:25.728Z,23.92
2023-04-16T00:40:29.032Z,22.95
2023-04-16T00:45:30.863Z,20.73
2023-04-16T00:50:33.389Z,21.73
2023-04-16T00:55:35.295Z,22.23
2023-04-16T01:00:37.313Z,20.33
2023-04-16T01:05:38.998Z,19.80
2023-04-16T01:10:40.829Z,20.13
2023-04-16T01:15:42.486Z,16.67
2023-04-16T01:20:44.560Z,20.20
2023-04-16T01:25:47.047Z,18.30
2023-04-16T01:30:48.774Z,21.63
2023-04-16T01:36:22.395Z,18.42
2023-04-16T01:41:24.741Z,17.38
2023-04-16T01:46:31.743Z,16.75
2023-04-16T01:51:33.625Z,18.67
2023-04-16T01:56:35.330Z,16.50
2023-04-16T02:01:37.486Z,18.27
2023-04-16T02:06:39.428Z,15.68
2023-04-16T02:11:41.198Z,18.08
2023-04-16T02:16:42.918Z,20.42
2023-04-16T02:21:56.257Z,19.27
2023-04-16T02:26:58.262Z,21.83
2023-04-16T02:32:00.263Z,23.58
2023-04-16T02:37:03.631Z,24.05
2023-04-16T02:42:05.276Z,22.48
2023-04-16T02:47:06.994Z,18.30
2023-04-16T02:52:08.664Z,20.02
2023-04-16T02:57:10.498Z,21.42
2023-04-16T03:02:12.217Z,18.80
2023-04-16T03:07:13.999Z,19.80
2023-04-16T03:12:15.626Z,18.23
2023-04-16T03:17:17.251Z,17.98
2023-04-16T03:22:18.891Z,19.85
2023-04-16T03:27:21.264Z,21.00
2023-04-16T03:32:23.674Z,15.75
2023-04-16T03:37:25.503Z,17.33
2023-04-16T03:42:27.495Z,18.30
2023-04-16T03:47:29.201Z,17.60
2023-04-16T03:52:36.199Z,15.43
2023-04-16T03:57:38.014Z,17.80
2023-04-16T04:02:45.023Z,19.95
2023-04-16T04:07:53.071Z,24.52
2023-04-16T04:12:54.833Z,23.42
2023-04-16T04:17:57.886Z,19.40
2023-04-16T04:22:59.667Z,22.05
2023-04-16T04:28:02.067Z,20.67
2023-04-16T04:33:04.207Z,22.60
2023-04-16T04:38:06.515Z,18.02
2023-04-16T04:43:08.773Z,19.92
2023-04-16T04:48:10.566Z,15.85
2023-04-16T04:53:14.675Z,16.13
2023-04-16T04:58:16.451Z,15.50
2023-04-16T05:03:22.000Z,14.32
2023-04-16T05:08:23.779Z,16.73
2023-04-16T05:13:25.463Z,16.98
2023-04-16T05:18:27.086Z,19.05
2023-04-16T05:23:28.703Z,16.38
2023-04-16T05:28:30.994Z,20.27
2023-04-16T05:33:32.650Z,18.98
2023-04-16T05:38:34.267Z,18.00
2023-04-16T05:43:35.924Z,15.80
2023-04-16T05:48:37.621Z,14.43
2023-04-16T05:53:39.299Z,12.88
2023-04-16T05:58:40.922Z,14.68
2023-04-16T06:03:42.701Z,13.27
2023-04-16T06:08:44.415Z,13.60
2023-04-16T06:13:46.337Z,11.85
2023-04-16T06:18:47.991Z,13.15
2023-04-16T06:23:49.846Z,11.98
2023-04-16T06:28:51.504Z,13.60
2023-04-16T06:33:53.173Z,12.00
2023-04-16T06:38:54.898Z,14.52
2023-04-16T06:43:56.524Z,13.88
2023-04-16T06:48:58.146Z,9.82
2023-04-16T06:53:59.806Z,12.02
2023-04-16T06:59:01.406Z,13.10
2023-04-16T07:04:03.726Z,12.77
2023-04-16T07:09:05.681Z,10.93
2023-04-16T07:14:07.378Z,10.80
2023-04-16T07:19:09.184Z,13.75
2023-04-16T07:24:11.813Z,13.23
2023-04-16T07:29:13.552Z,11.60
2023-04-16T07:34:18.132Z,14.30
2023-04-16T07:39:19.802Z,12.95
2023-04-16T07:44:21.575Z,12.02
2023-04-16T07:49:23.298Z,13.50
2023-04-16T07:54:25.127Z,12.95
2023-04-16T07:59:27.516Z,11.95
2023-04-16T08:04:29.623Z,13.25
2023-04-16T08:09:31.352Z,13.93
2023-04-16T08:14:33.129Z,13.75
2023-04-16T08:19:34.739Z,14.82
2023-04-16T08:24:36.357Z,14.52
2023-04-16T08:29:38.277Z,14.65
2023-04-16T08:34:39.994Z,15.93
2023-04-16T08:39:41.811Z,16.67
2023-04-16T08:44:48.893Z,15.70
2023-04-16T08:49:58.393Z,17.92
2023-04-16T08:55:25.007Z,18.77
2023-04-16T09:00:26.798Z,18.52
2023-04-16T09:05:29.536Z,17.17
2023-04-16T09:10:31.423Z,14.85
2023-04-16T09:15:35.197Z,15.63
2023-04-16T09:20:36.900Z,15.02
2023-04-16T09:25:38.786Z,14.55
2023-04-16T09:30:43.182Z,14.40
2023-04-16T09:35:49.842Z,11.43
2023-04-16T09:41:07.239Z,14.05
2023-04-16T09:46:11.700Z,13.40
2023-04-16T09:51:13.422Z,9.30
2023-04-16T09:56:15.116Z,12.60
2023-04-16T10:01:18.309Z,9.25
2023-04-16T10:06:22.247Z,8.27
2023-04-16T10:11:25.707Z,8.32
2023-04-16T10:16:36.760Z,6.35
2023-04-16T10:21:38.432Z,9.50
2023-04-16T10:26:41.323Z,9.07
2023-04-16T10:31:43.204Z,7.13
2023-04-16T10:36:48.817Z,7.38
2023-04-16T10:41:51.367Z,7.00
2023-04-16T10:46:54.824Z,7.03
2023-04-16T10:52:00.279Z,6.15
2023-04-16T10:57:20.571Z,4.05
2023-04-16T11:02:28.990Z,5.60
2023-04-16T11:07:34.920Z,3.65
2023-04-16T11:12:40.537Z,3.20
2023-04-16T11:17:47.505Z,4.25
2023-04-16T11:22:50.266Z,3.95
2023-04-16T11:27:53.887Z,4.80
2023-04-16T11:32:55.770Z,3.20
2023-04-16T11:37:57.759Z,6.15
2023-04-16T11:43:04.075Z,5.45
2023-04-16T11:48:06.033Z,5.22
2023-04-16T11:53:07.783Z,4.65
2023-04-16T11:58:19.185Z,4.03
2023-04-16T12:03:38.819Z,4.70
2023-04-16T12:08:40.626Z,6.22
2023-04-16T12:13:42.314Z,3.88
2023-04-16T12:19:03.056Z,3.05
2023-04-16T12:24:05.967Z,4.57
2023-04-16T12:29:25.011Z,4.90
2023-04-16T12:34:36.509Z,6.38
2023-04-16T12:39:48.339Z,5.78
2023-04-16T12:44:50.028Z,6.72
2023-04-16T12:49:51.650Z,6.07
2023-04-16T12:54:53.484Z,5.00
2023-04-16T12:59:56.891Z,6.20
2023-04-16T13:04:58.557Z,6.20
2023-04-16T13:10:00.974Z,5.13
2023-04-16T13:15:02.700Z,5.35
2023-04-16T13:20:04.709Z,5.90
2023-04-16T13:25:07.073Z,4.82
2023-04-16T13:30:25.368Z,5.13
2023-04-16T13:40:29.047Z,7.68
2023-04-16T13:45:30.868Z,5.75
2023-04-16T13:50:32.546Z,6.03
2023-04-16T13:55:34.313Z,6.35
2023-04-16T14:00:36.035Z,6.78
2023-04-16T14:05:37.701Z,5.68
2023-04-16T14:10:39.398Z,5.70
2023-04-16T14:15:41.113Z,4.90
2023-04-16T14:20:43.838Z,5.78
2023-04-16T14:25:45.601Z,5.05
2023-04-16T14:30:47.193Z,4.70
2023-04-16T14:35:50.385Z,4.75
2023-04-16T14:40:52.099Z,6.80
2023-04-16T14:45:53.834Z,4.57
2023-04-16T14:50:55.676Z,4.65
2023-04-16T14:56:00.643Z,4.97
2023-04-16T15:01:03.195Z,5.10
2023-04-16T15:06:05.862Z,4.30
2023-04-16T15:11:07.677Z,3.17
2023-04-16T15:16:09.335Z,5.30
2023-04-16T15:21:12.593Z,3.70
2023-04-16T15:26:14.565Z,3.00
2023-04-16T15:31:16.259Z,4.15
2023-04-16T15:36:17.977Z,2.97
2023-04-16T15:41:19.712Z,3.28
2023-04-16T15:46:21.421Z,3.97
2023-04-16T15:51:23.122Z,3.65
2023-04-16T15:56:25.386Z,3.88
2023-04-16T16:01:28.535Z,3.83
2023-04-16T16:06:30.176Z,4.45
2023-04-16T16:11:34.647Z,3.83
2023-04-16T16:16:40.247Z,3.95
2023-04-16T16:21:42.089Z,4.30
2023-04-16T16:26:44.054Z,6.30
2023-04-16T16:31:45.949Z,5.57
2023-04-16T16:36:47.753Z,4.75
2023-04-16T16:41:52.219Z,5.57
2023-04-16T16:46:54.268Z,5.13
2023-04-16T16:51:56.036Z,4.50
2023-04-16T16:56:58.683Z,5.07
2023-04-16T17:02:00.426Z,4.82
2023-04-16T17:07:02.601Z,5.13
2023-04-16T17:12:05.529Z,5.22
2023-04-16T17:17:07.196Z,5.63
2023-04-16T17:22:08.953Z,4.78
2023-04-16T17:27:10.569Z,5.68
2023-04-16T17:32:12.342Z,6.30
2023-04-16T17:37:14.095Z,6.15
2023-04-16T17:42:15.861Z,8.27
2023-04-16T17:47:17.551Z,9.80
2023-04-16T17:52:21.259Z,11.20
2023-04-16T17:57:22.868Z,11.77
2023-04-16T18:02:32.341Z,14.77
2023-04-16T18:07:36.611Z,17.55
2023-04-16T18:12:38.333Z,17.55
2023-04-16T18:17:40.516Z,21.90
2023-04-16T18:22:42.555Z,19.88
2023-04-16T18:27:44.844Z,21.63
2023-04-16T18:33:16.621Z,22.10
2023-04-16T18:38:08.783Z,17.95
2023-04-16T18:43:11.828Z,16.25
2023-04-16T18:48:13.481Z,12.20
2023-04-16T18:53:19.894Z,9.32
2023-04-16T18:58:24.554Z,7.82
2023-04-16T19:03:27.472Z,8.32
2023-04-16T19:08:29.767Z,8.90
2023-04-16T19:13:32.336Z,8.88
2023-04-16T19:18:33.976Z,8.55
2023-04-16T19:23:35.699Z,7.40
2023-04-16T19:28:38.780Z,8.00
2023-04-16T19:33:41.184Z,12.90
2023-04-16T19:38:42.802Z,12.98
2023-04-16T19:43:53.181Z,7.80
2023-04-16T19:48:54.885Z,7.40
2023-04-16T19:53:58.729Z,6.43
2023-04-16T19:59:02.035Z,5.72
2023-04-16T20:04:03.844Z,6.45
2023-04-16T20:09:06.045Z,5.97
2023-04-16T20:14:07.686Z,7.65
2023-04-16T20:19:17.109Z,8.20
2023-04-16T20:24:18.874Z,9.75
2023-04-16T20:29:23.200Z,8.18
2023-04-16T20:34:24.876Z,9.25
2023-04-16T20:39:27.338Z,9.23
2023-04-16T20:44:33.431Z,9.02
2023-04-16T20:49:35.326Z,8.60
2023-04-16T20:54:37.128Z,10.20
2023-04-16T20:59:38.857Z,10.43
2023-04-16T21:04:40.815Z,11.63
2023-04-16T21:09:42.564Z,11.05
2023-04-16T21:14:44.278Z,15.32
2023-04-16T21:19:49.468Z,11.48
2023-04-16T21:25:07.207Z,12.77
2023-04-16T21:30:15.032Z,12.20
2023-04-16T21:35:16.775Z,13.10
2023-04-16T21:40:21.801Z,9.48
2023-04-16T21:45:23.574Z,11.80
2023-04-16T21:50:25.356Z,12.98
2023-04-16T21:55:27.028Z,13.48
2023-04-16T22:00:37.908Z,12.60
2023-04-16T22:05:44.976Z,14.32
2023-04-16T22:10:47.088Z,14.60
2023-04-16T22:15:48.671Z,11.32
2023-04-16T22:20:51.034Z,14.43
2023-04-16T22:25:54.319Z,10.90
2023-04-16T22:30:57.586Z,12.73
2023-04-16T22:36:03.275Z,13.98
2023-04-16T22:41:05.003Z,13.68
2023-04-16T22:46:14.785Z,16.05
2023-04-16T22:51:21.402Z,16.48
2023-04-16T22:56:28.668Z,16.25
2023-04-16T23:01:34.361Z,14.88
2023-04-16T23:06:36.245Z,15.80
2023-04-16T23:11:37.954Z,15.77
2023-04-16T23:16:39.930Z,14.30
2023-04-16T23:21:41.894Z,14.18
2023-04-16T23:26:43.526Z,14.05
2023-04-16T23:31:45.404Z,16.30
2023-04-16T23:36:47.128Z,16.23
2023-04-16T23:41:48.831Z,15.45
2023-04-16T23:46:50.621Z,12.90
2023-04-16T23:51:52.275Z,15.10
2023-04-16T23:56:53.917Z,12.88
